Time;durP1;ratioP1;P1;durP2;ratioP2;P2;SDS_P1;SDS_P2;PMS_P1;PMS_P2;Temp;Humidity;BMP_temperature;BMP_pressure;BME280_temperature;BME280_humidity;BME280_pressure;Samples;Min_cycle;Max_cycle;Signal;HPM_P1;HPM_P2
2022/02/15 00:00:15;;;;;;;2.43;2.10;;;8.70;99.90;;;;;;5014686;28;20632;-68
2022/02/15 00:02:41;;;;;;;3.13;1.93;;;8.60;99.90;;;;;;5014618;28;20207;-68
2022/02/15 00:05:06;;;;;;;5.70;3.10;;;8.80;99.90;;;;;;5014151;28;20198;-69
2022/02/15 00:07:32;;;;;;;3.23;2.37;;;8.60;99.90;;;;;;5014152;28;20173;-68
2022/02/15 00:09:57;;;;;;;4.33;3.10;;;8.70;99.90;;;;;;5014205;28;20177;-68
2022/02/15 00:12:23;;;;;;;4.33;2.47;;;8.60;99.90;;;;;;5014143;28;20196;-68
2022/02/15 00:14:48;;;;;;;3.90;2.77;;;8.60;99.90;;;;;;4996319;28;20207;-68
2022/02/15 00:17:14;;;;;;;2.53;2.33;;;8.70;99.90;;;;;;5014327;28;20173;-69
2022/02/15 00:19:39;;;;;;;3.90;2.43;;;8.80;99.90;;;;;;5041380;22;20247;-72
2022/02/15 00:22:05;;;;;;;3.00;2.03;;;8.90;99.90;;;;;;4995591;28;20169;-73
2022/02/15 00:24:30;;;;;;;3.10;2.60;;;8.70;99.90;;;;;;4995339;28;20208;-74
2022/02/15 00:26:56;;;;;;;2.77;1.87;;;8.60;99.90;;;;;;4995903;28;20181;-72
2022/02/15 00:29:21;;;;;;;2.93;2.27;;;8.70;99.90;;;;;;4995015;28;20240;-71
2022/02/15 00:31:47;;;;;;;2.50;2.30;;;8.60;99.90;;;;;;4994662;28;20173;-72
2022/02/15 00:34:12;;;;;;;2.53;2.33;;;8.50;99.90;;;;;;4994865;28;20174;-72
2022/02/15 00:36:38;;;;;;;4.73;2.57;;;8.50;99.90;;;;;;4994672;28;20188;-71
2022/02/15 00:39:04;;;;;;;2.63;2.40;;;8.60;99.90;;;;;;4994861;28;20165;-74
2022/02/15 00:41:29;;;;;;;2.63;2.43;;;8.70;99.90;;;;;;4977489;28;20177;-73
2022/02/15 00:43:55;;;;;;;5.53;2.50;;;8.70;99.90;;;;;;4994665;28;20453;-73
2022/02/15 00:46:20;;;;;;;2.20;1.87;;;8.60;99.90;;;;;;4994759;28;20171;-73
2022/02/15 00:48:46;;;;;;;2.47;2.27;;;8.50;99.90;;;;;;4994824;28;20204;-71
2022/02/15 00:51:11;;;;;;;2.73;2.10;;;8.40;99.90;;;;;;4993865;28;20608;-72
2022/02/15 00:53:37;;;;;;;4.47;2.07;;;8.50;99.90;;;;;;4994391;28;20184;-72
2022/02/15 00:56:04;;;;;;;3.47;2.40;;;8.40;99.90;;;;;;4996722;28;20276;-72
2022/02/15 00:58:29;;;;;;;8.73;2.90;;;8.40;99.90;;;;;;4996531;28;20178;-72
2022/02/15 01:00:55;;;;;;;3.13;2.33;;;8.40;99.90;;;;;;4994383;28;20430;-71
2022/02/15 01:03:20;;;;;;;9.23;2.33;;;8.50;99.90;;;;;;4994032;28;20197;-72
2022/02/15 01:05:46;;;;;;;4.50;2.33;;;8.50;99.90;;;;;;4993531;28;20200;-72
2022/02/15 01:08:12;;;;;;;3.67;2.20;;;8.30;99.90;;;;;;4987935;28;20177;-72
2022/02/15 01:10:38;;;;;;;4.00;2.83;;;8.50;99.90;;;;;;4993635;28;20786;-73
2022/02/15 01:13:04;;;;;;;2.60;2.17;;;8.30;99.90;;;;;;4977248;28;20843;-73
2022/02/15 01:15:29;;;;;;;2.23;2.07;;;8.40;99.90;;;;;;4993416;28;20420;-73
2022/02/15 01:17:55;;;;;;;3.40;2.97;;;8.20;99.90;;;;;;4993750;28;20260;-72
2022/02/15 01:20:20;;;;;;;2.93;2.60;;;8.30;99.90;;;;;;4993591;28;20596;-74
2022/02/15 01:22:46;;;;;;;2.50;2.30;;;8.40;99.90;;;;;;4993935;28;20583;-73
2022/02/15 01:25:11;;;;;;;4.53;2.00;;;8.30;99.90;;;;;;4993811;28;20181;-73
2022/02/15 01:27:37;;;;;;;2.87;2.50;;;8.40;99.90;;;;;;4993637;28;20211;-72
2022/02/15 01:30:04;;;;;;;2.33;2.00;;;8.20;99.90;;;;;;4993642;28;20193;-72
2022/02/15 01:32:30;;;;;;;3.43;2.57;;;8.30;99.90;;;;;;4993358;28;20640;-72
2022/02/15 01:34:55;;;;;;;2.83;1.97;;;8.20;99.90;;;;;;4993141;28;20413;-71
2022/02/15 01:37:21;;;;;;;2.03;1.80;;;8.30;99.90;;;;;;4993510;28;20231;-73
2022/02/15 01:39:46;;;;;;;3.90;2.43;;;8.30;99.90;;;;;;4993474;28;20702;-72
2022/02/15 01:42:15;;;;;;;2.73;2.23;;;8.40;99.90;;;;;;4993105;28;20181;-73
2022/02/15 01:44:41;;;;;;;1.87;1.77;;;8.50;99.90;;;;;;4993074;28;20650;-74
2022/02/15 01:47:07;;;;;;;3.37;2.10;;;8.40;99.90;;;;;;4975689;28;20966;-72
2022/02/15 01:49:32;;;;;;;3.23;3.03;;;8.50;99.90;;;;;;4993021;28;20575;-74
2022/02/15 01:51:58;;;;;;;2.53;2.03;;;8.30;99.90;;;;;;4993225;28;20168;-74
2022/02/15 01:54:23;;;;;;;3.33;2.97;;;8.40;99.90;;;;;;4993228;28;20177;-72
2022/02/15 01:56:49;;;;;;;3.37;2.23;;;8.40;99.90;;;;;;4993310;28;20173;-72
2022/02/15 01:59:15;;;;;;;2.67;2.47;;;8.30;99.90;;;;;;4997918;28;20196;-72
2022/02/15 02:01:40;;;;;;;2.23;2.03;;;8.20;99.90;;;;;;5001504;28;20177;-72
2022/02/15 02:05:47;;;;;;;2.30;2.10;;;8.20;99.90;;;;;;5000803;28;20213;-74
2022/02/15 02:06:51;;;;;;;3.00;2.33;;;8.10;99.90;;;;;;5001360;28;20233;-73
2022/02/15 02:09:16;;;;;;;6.37;2.83;;;8.20;99.90;;;;;;4994758;28;20456;-74
2022/02/15 02:11:42;;;;;;;2.00;1.73;;;8.10;99.90;;;;;;4992985;28;20188;-74
2022/02/15 02:14:07;;;;;;;3.23;1.90;;;8.10;99.90;;;;;;4992952;28;20225;-73
2022/02/15 02:16:33;;;;;;;3.40;2.20;;;8.00;99.90;;;;;;4992982;28;20181;-72
2022/02/15 02:18:59;;;;;;;3.03;2.03;;;8.10;99.90;;;;;;4992913;28;20184;-73
2022/02/15 02:21:38;;;;;;;2.17;1.97;;;7.90;99.90;;;;;;4992924;28;20219;-72
2022/02/15 02:24:05;;;;;;;3.13;2.00;;;7.90;99.90;;;;;;4975810;28;20200;-73
2022/02/15 02:26:31;;;;;;;2.50;2.30;;;7.80;99.90;;;;;;4975019;28;20455;-72
2022/02/15 02:28:57;;;;;;;2.10;1.90;;;7.90;99.90;;;;;;4973588;28;20863;-72
2022/02/15 02:31:22;;;;;;;2.33;2.10;;;7.90;99.90;;;;;;4973515;28;20493;-72
2022/02/15 02:33:48;;;;;;;2.40;1.90;;;7.70;99.90;;;;;;4971619;28;20683;-73
2022/02/15 02:36:13;;;;;;;3.60;2.77;;;7.70;99.90;;;;;;4973620;28;20200;-73
2022/02/15 02:38:39;;;;;;;2.47;2.27;;;7.70;99.90;;;;;;4973754;28;20177;-72
2022/02/15 02:41:04;;;;;;;2.50;1.97;;;7.60;99.90;;;;;;4974112;28;20201;-72
2022/02/15 02:43:30;;;;;;;2.97;2.00;;;7.60;99.90;;;;;;4975536;28;20292;-72
2022/02/15 02:45:55;;;;;;;4.17;2.00;;;7.60;99.90;;;;;;4974726;28;20166;-72
2022/02/15 02:48:21;;;;;;;3.23;2.17;;;7.40;99.90;;;;;;4973064;28;20169;-74
2022/02/15 02:50:47;;;;;;;2.60;2.30;;;7.50;99.90;;;;;;4973108;28;20194;-73
2022/02/15 02:53:16;;;;;;;2.70;2.50;;;7.50;99.90;;;;;;4973084;28;20427;-72
2022/02/15 02:55:42;;;;;;;4.83;2.53;;;7.60;99.90;;;;;;4972969;28;20181;-72
2022/02/15 02:58:07;;;;;;;2.40;2.20;;;7.50;99.90;;;;;;4973503;28;20844;-72
2022/02/15 03:00:33;;;;;;;2.90;2.03;;;7.40;99.90;;;;;;4973229;28;20248;-73
2022/02/15 03:03:00;;;;;;;4.00;2.50;;;7.40;99.90;;;;;;4973344;28;20177;-72
2022/02/15 03:05:25;;;;;;;2.53;1.83;;;7.30;99.90;;;;;;4973104;28;20208;-73
2022/02/15 03:07:52;;;;;;;2.60;2.40;;;7.30;99.90;;;;;;4972862;28;20433;-72
2022/02/15 03:10:17;;;;;;;3.77;2.00;;;7.20;99.90;;;;;;4972994;28;20327;-72
2022/02/15 03:12:42;;;;;;;3.50;2.23;;;7.30;99.90;;;;;;4972813;28;20449;-71
2022/02/15 03:15:08;;;;;;;3.47;2.37;;;7.40;99.90;;;;;;4956946;28;20181;-72
2022/02/15 03:17:34;;;;;;;1.77;1.67;;;7.30;99.90;;;;;;4976763;28;20172;-71
2022/02/15 03:19:59;;;;;;;2.67;1.97;;;7.30;99.90;;;;;;4976336;28;20452;-72
2022/02/15 03:22:25;;;;;;;2.03;1.93;;;7.10;99.90;;;;;;4976823;28;20635;-72
2022/02/15 03:24:50;;;;;;;3.93;2.17;;;7.10;99.90;;;;;;4976193;28;20248;-72
2022/02/15 03:27:16;;;;;;;5.10;2.33;;;7.20;99.90;;;;;;4976336;28;20166;-72
2022/02/15 03:29:42;;;;;;;2.40;1.90;;;7.00;99.90;;;;;;4976230;28;20405;-72
2022/02/15 03:32:07;;;;;;;5.33;2.10;;;7.10;99.90;;;;;;4976541;28;20250;-72
2022/02/15 03:34:33;;;;;;;1.97;1.87;;;7.20;99.90;;;;;;4976511;28;20228;-73
2022/02/15 03:36:58;;;;;;;4.60;2.27;;;7.00;99.90;;;;;;4976618;28;20206;-73
2022/02/15 03:39:24;;;;;;;4.40;2.10;;;7.00;99.90;;;;;;4976448;28;20198;-72
2022/02/15 03:44:33;;;;;;;2.60;2.17;;;6.70;99.90;;;;;;4976687;28;20192;-73
2022/02/15 03:46:59;;;;;;;3.67;3.27;;;6.80;99.90;;;;;;4977359;28;20755;-72
2022/02/15 03:49:25;;;;;;;2.30;2.10;;;6.90;99.90;;;;;;4976574;28;20198;-73
2022/02/15 03:51:50;;;;;;;2.17;1.97;;;6.70;99.90;;;;;;4975969;28;20196;-72
2022/02/15 03:54:16;;;;;;;3.47;2.10;;;6.60;99.90;;;;;;4976458;28;20174;-73
2022/02/15 03:56:41;;;;;;;3.07;2.70;;;6.50;99.90;;;;;;4976091;28;20564;-73
2022/02/15 03:59:07;;;;;;;3.60;2.10;;;6.70;99.90;;;;;;4975809;28;20525;-73
2022/02/15 04:01:34;;;;;;;4.30;1.93;;;6.80;99.90;;;;;;4975649;28;20178;-71
2022/02/15 04:03:59;;;;;;;3.03;2.17;;;6.70;99.90;;;;;;4958269;28;20585;-72
2022/02/15 04:06:25;;;;;;;1.63;1.40;;;6.60;99.90;;;;;;4975740;28;20417;-72
2022/02/15 04:08:50;;;;;;;3.20;1.90;;;6.70;99.90;;;;;;4975977;28;20180;-72
2022/02/15 04:11:16;;;;;;;3.50;2.50;;;6.80;99.90;;;;;;4958241;28;20548;-72
2022/02/15 04:13:41;;;;;;;2.40;2.20;;;6.70;99.90;;;;;;4976089;28;20633;-74
2022/02/15 04:16:08;;;;;;;5.37;2.43;;;6.70;99.90;;;;;;4976335;28;20185;-72
2022/02/15 04:18:34;;;;;;;2.63;1.87;;;6.80;99.90;;;;;;4975642;28;20587;-72
2022/02/15 04:20:59;;;;;;;2.57;1.87;;;6.70;99.90;;;;;;4975341;28;20489;-71
2022/02/15 04:23:25;;;;;;;4.60;2.03;;;6.90;99.90;;;;;;4975675;28;20232;-73
2022/02/15 04:25:51;;;;;;;4.03;2.47;;;6.70;99.90;;;;;;4974999;28;20651;-73
2022/02/15 04:28:17;;;;;;;5.80;1.80;;;6.70;99.90;;;;;;4975090;28;20683;-72
2022/02/15 04:30:43;;;;;;;2.83;1.87;;;6.70;99.90;;;;;;4975924;28;20452;-72
2022/02/15 04:33:08;;;;;;;2.63;2.37;;;6.60;99.90;;;;;;4979396;28;20177;-72
2022/02/15 04:35:34;;;;;;;4.30;2.50;;;6.70;99.90;;;;;;4976971;28;20216;-72
2022/02/15 04:37:59;;;;;;;2.00;1.80;;;6.70;99.90;;;;;;4975247;28;20600;-72
2022/02/15 04:40:25;;;;;;;2.70;2.40;;;6.70;99.90;;;;;;4974833;28;20714;-74
2022/02/15 04:42:50;;;;;;;2.37;2.17;;;6.70;99.90;;;;;;4974782;28;20166;-72
2022/02/15 04:45:16;;;;;;;2.33;2.13;;;6.70;99.90;;;;;;4974950;28;20165;-73
2022/02/15 04:47:41;;;;;;;4.63;2.80;;;6.80;99.90;;;;;;4975170;28;20553;-72
2022/02/15 04:50:07;;;;;;;2.70;2.00;;;6.80;99.90;;;;;;4974650;28;20346;-72
2022/02/15 04:52:33;;;;;;;3.00;2.07;;;6.70;99.90;;;;;;4974993;28;20177;-72
2022/02/15 04:54:58;;;;;;;3.53;2.60;;;6.70;99.90;;;;;;4974705;28;20405;-72
2022/02/15 04:57:24;;;;;;;1.57;1.23;;;6.80;99.90;;;;;;4974968;28;20201;-72
2022/02/15 04:59:49;;;;;;;1.70;1.53;;;6.70;99.90;;;;;;4974677;28;20280;-71
2022/02/15 05:02:15;;;;;;;2.83;2.07;;;6.80;99.90;;;;;;4974686;28;20184;-73
2022/02/15 05:04:50;;;;;;;3.83;2.77;;;6.70;99.90;;;;;;4974402;28;20628;-72
2022/02/15 05:07:16;;;;;;;2.10;1.90;;;6.80;99.90;;;;;;4974736;28;20719;-72
2022/02/15 05:09:42;;;;;;;3.00;2.50;;;6.80;99.90;;;;;;4974686;28;20935;-73
2022/02/15 05:12:07;;;;;;;3.90;1.90;;;6.70;99.90;;;;;;4974716;28;20412;-73
2022/02/15 05:14:33;;;;;;;4.90;2.00;;;6.70;99.90;;;;;;4974455;28;20583;-72
2022/02/15 05:16:58;;;;;;;2.97;2.67;;;6.70;99.90;;;;;;4974990;28;20193;-73
2022/02/15 05:19:24;;;;;;;2.90;2.70;;;6.70;99.90;;;;;;4974778;28;20668;-72
2022/02/15 05:21:49;;;;;;;2.20;1.50;;;6.60;99.90;;;;;;4976237;28;20174;-74
2022/02/15 05:24:15;;;;;;;3.60;1.83;;;6.60;99.90;;;;;;4984455;28;20205;-73
2022/02/15 05:26:40;;;;;;;5.00;2.40;;;6.70;99.90;;;;;;4984933;28;20620;-73
2022/02/15 05:29:06;;;;;;;2.23;2.03;;;6.60;99.90;;;;;;4988150;28;20579;-73
2022/02/15 05:31:31;;;;;;;2.13;1.90;;;6.50;99.90;;;;;;4985652;28;20178;-72
2022/02/15 05:33:57;;;;;;;3.77;3.40;;;6.50;99.90;;;;;;4974029;28;20260;-72
2022/02/15 05:36:22;;;;;;;2.60;2.30;;;6.50;99.90;;;;;;4974013;28;20691;-72
2022/02/15 05:38:48;;;;;;;2.03;1.93;;;6.50;99.90;;;;;;4973862;28;20192;-72
2022/02/15 05:41:13;;;;;;;2.03;1.83;;;6.60;99.90;;;;;;4973900;28;20205;-72
2022/02/15 05:43:39;;;;;;;2.93;2.33;;;6.60;99.90;;;;;;4974773;28;20193;-72
2022/02/15 05:46:04;;;;;;;1.87;1.50;;;6.40;99.90;;;;;;4974391;28;20188;-72
2022/02/15 05:48:30;;;;;;;3.47;2.80;;;6.60;99.90;;;;;;4974058;28;20194;-72
2022/02/15 05:50:55;;;;;;;2.83;2.63;;;6.50;99.90;;;;;;4974541;28;20213;-72
2022/02/15 05:53:29;;;;;;;2.27;2.00;;;6.50;99.90;;;;;;4974268;28;20224;-71
2022/02/15 05:55:58;;;;;;;5.33;3.10;;;6.60;99.90;;;;;;4974147;28;20181;-72
2022/02/15 05:58:24;;;;;;;2.90;2.70;;;6.70;99.90;;;;;;4973838;28;20421;-72
2022/02/15 06:00:50;;;;;;;1.80;1.70;;;6.60;99.90;;;;;;4973860;28;20432;-74
2022/02/15 06:06:00;;;;;;;2.83;2.63;;;6.60;99.90;;;;;;4973576;28;20663;-72
2022/02/15 06:08:26;;;;;;;1.80;1.70;;;6.60;99.90;;;;;;4973593;28;20492;-72
2022/02/15 06:10:51;;;;;;;3.27;2.87;;;6.60;99.90;;;;;;4973930;28;20197;-72
2022/02/15 06:13:18;;;;;;;2.97;2.63;;;6.70;99.90;;;;;;4973651;28;20464;-72
2022/02/15 06:15:44;;;;;;;3.47;2.57;;;6.60;99.90;;;;;;4973567;28;20219;-72
2022/02/15 06:18:09;;;;;;;4.33;2.93;;;6.60;99.90;;;;;;4974016;28;20441;-74
2022/02/15 06:20:35;;;;;;;2.70;2.47;;;6.60;99.90;;;;;;4993720;23;20222;-69
2022/02/15 06:23:01;;;;;;;2.47;2.27;;;6.70;99.90;;;;;;5011627;28;20403;-68
2022/02/15 06:25:26;;;;;;;4.33;2.20;;;6.60;99.90;;;;;;5011783;28;20164;-69
2022/02/15 06:27:52;;;;;;;2.90;1.80;;;6.60;99.90;;;;;;5011762;28;20207;-69
2022/02/15 06:30:17;;;;;;;3.30;2.30;;;6.60;99.90;;;;;;5011978;28;20264;-69
2022/02/15 06:32:43;;;;;;;3.57;2.03;;;6.70;99.90;;;;;;5011848;28;20168;-68
2022/02/15 06:35:09;;;;;;;3.50;2.90;;;6.70;99.90;;;;;;5011982;28;20263;-69
2022/02/15 06:37:36;;;;;;;2.30;2.10;;;6.50;99.90;;;;;;5011676;28;20226;-69
2022/02/15 06:40:02;;;;;;;2.57;1.90;;;6.60;99.90;;;;;;5011733;28;20415;-69
2022/02/15 06:42:30;;;;;;;4.40;2.37;;;6.50;99.90;;;;;;5011489;28;20438;-69
2022/02/15 06:44:57;;;;;;;2.70;1.90;;;6.60;99.90;;;;;;5011655;28;20545;-69
2022/02/15 06:47:23;;;;;;;2.77;1.90;;;6.60;99.90;;;;;;5011740;28;20407;-68
2022/02/15 06:49:48;;;;;;;2.20;2.00;;;6.50;99.90;;;;;;5013955;28;20494;-68
2022/02/15 06:52:14;;;;;;;2.10;2.00;;;6.50;99.90;;;;;;5018222;28;20726;-68
2022/02/15 06:54:40;;;;;;;4.10;2.83;;;6.50;99.90;;;;;;5017900;28;20180;-69
2022/02/15 06:57:05;;;;;;;3.37;2.87;;;6.50;99.90;;;;;;5018220;28;20167;-68
2022/02/15 06:59:31;;;;;;;3.13;1.70;;;6.50;99.90;;;;;;5018100;28;20414;-69
2022/02/15 07:01:56;;;;;;;1.90;1.80;;;6.50;99.90;;;;;;5018116;28;20655;-67
2022/02/15 07:04:22;;;;;;;4.23;2.17;;;6.60;99.90;;;;;;5017683;28;20206;-68
2022/02/15 07:06:48;;;;;;;4.47;3.00;;;6.60;99.90;;;;;;5017859;28;20176;-68
2022/02/15 07:09:13;;;;;;;3.03;2.70;;;6.60;99.90;;;;;;5017799;28;20168;-68
2022/02/15 07:11:39;;;;;;;2.70;1.80;;;6.60;99.90;;;;;;5017813;28;20592;-68
2022/02/15 07:14:04;;;;;;;2.93;1.97;;;6.70;99.90;;;;;;5017476;28;20180;-68
2022/02/15 07:16:31;;;;;;;1.77;1.67;;;6.70;99.90;;;;;;5017706;28;20203;-68
2022/02/15 07:18:57;;;;;;;2.50;1.80;;;6.70;99.90;;;;;;5017654;28;20200;-69
2022/02/15 07:21:24;;;;;;;2.63;1.87;;;6.70;99.90;;;;;;5017577;28;20454;-68
2022/02/15 07:23:49;;;;;;;1.77;1.67;;;6.70;99.90;;;;;;5017468;28;20454;-68
2022/02/15 07:26:15;;;;;;;2.53;2.13;;;6.70;99.90;;;;;;5017703;28;20473;-69
2022/02/15 07:28:41;;;;;;;1.47;1.37;;;6.70;99.90;;;;;;5018001;28;20178;-69
2022/02/15 07:31:06;;;;;;;2.00;1.60;;;6.80;99.90;;;;;;5017902;28;20194;-68
2022/02/15 07:33:32;;;;;;;1.70;1.50;;;6.80;99.90;;;;;;5017966;28;20590;-68
2022/02/15 07:35:57;;;;;;;1.70;1.50;;;6.80;99.90;;;;;;5017738;28;20541;-68
2022/02/15 07:38:23;;;;;;;6.37;2.30;;;6.90;99.90;;;;;;5017772;28;20172;-67
2022/02/15 07:40:48;;;;;;;4.90;2.37;;;6.90;99.90;;;;;;5017915;28;20192;-67
2022/02/15 07:43:14;;;;;;;3.40;3.00;;;6.90;99.90;;;;;;5017866;28;20279;-68
2022/02/15 07:45:40;;;;;;;3.50;1.80;;;6.90;99.90;;;;;;5018184;28;20168;-68
2022/02/15 07:48:06;;;;;;;3.50;1.90;;;7.00;99.90;;;;;;5016099;28;20227;-67
2022/02/15 07:50:32;;;;;;;1.83;1.33;;;7.10;99.90;;;;;;5017912;28;20431;-67
2022/02/15 07:52:57;;;;;;;2.33;1.90;;;7.10;99.90;;;;;;5018687;28;20979;-67
2022/02/15 07:55:23;;;;;;;3.17;2.20;;;7.30;99.90;;;;;;5018713;28;20183;-67
2022/02/15 07:57:49;;;;;;;3.47;1.83;;;7.60;99.90;;;;;;5019306;28;20637;-67
2022/02/15 08:00:18;;;;;;;10.60;4.03;;;7.50;99.90;;;;;;5018640;28;20791;-68
2022/02/15 08:02:49;;;;;;;10.90;5.80;;;7.60;99.90;;;;;;5013844;28;20177;-68
2022/02/15 08:05:14;;;;;;;2.87;2.60;;;7.60;99.90;;;;;;5014540;28;20541;-69
2022/02/15 08:07:48;;;;;;;4.07;2.53;;;7.60;99.90;;;;;;5015262;28;20847;-68
2022/02/15 08:10:18;;;;;;;2.47;1.83;;;7.90;99.90;;;;;;5015439;28;20509;-67
2022/02/15 08:12:44;;;;;;;5.13;2.30;;;8.00;99.90;;;;;;5014894;28;20399;-67
2022/02/15 08:15:09;;;;;;;3.80;1.90;;;8.20;99.90;;;;;;5014040;28;20428;-67
2022/02/15 08:17:35;;;;;;;1.60;1.50;;;8.10;99.90;;;;;;5014020;28;20196;-66
2022/02/15 08:20:00;;;;;;;3.53;1.70;;;8.10;99.90;;;;;;5013869;28;20179;-67
2022/02/15 08:22:26;;;;;;;2.07;1.60;;;8.50;99.90;;;;;;5013406;28;20216;-67
2022/02/15 08:24:51;;;;;;;2.93;1.63;;;8.60;99.90;;;;;;5013924;28;20207;-68
2022/02/15 08:27:17;;;;;;;2.40;1.83;;;8.80;99.90;;;;;;5014052;28;20182;-68
2022/02/15 08:29:44;;;;;;;1.60;1.50;;;9.60;99.90;;;;;;4995907;28;20254;-68
2022/02/15 08:32:10;;;;;;;1.70;1.60;;;9.60;99.90;;;;;;4990534;28;20558;-68
2022/02/15 08:34:35;;;;;;;6.70;1.80;;;9.80;99.90;;;;;;5005548;28;20416;-67
2022/02/15 08:37:02;;;;;;;2.83;1.90;;;9.40;99.90;;;;;;4976806;28;20197;-67
2022/02/15 08:39:28;;;;;;;2.63;1.83;;;9.60;99.90;;;;;;5007166;28;20184;-67
2022/02/15 08:41:54;;;;;;;3.40;1.40;;;10.10;99.90;;;;;;5013642;28;20443;-68
2022/02/15 08:44:19;;;;;;;2.10;1.30;;;10.70;99.90;;;;;;5013663;28;20283;-68
2022/02/15 08:46:45;;;;;;;1.70;1.57;;;10.80;99.90;;;;;;5013431;28;20204;-68
2022/02/15 08:49:10;;;;;;;1.90;1.80;;;10.50;99.90;;;;;;5013325;28;20634;-68
2022/02/15 08:51:37;;;;;;;4.10;2.10;;;9.90;99.90;;;;;;5013191;28;20252;-69
2022/02/15 08:54:03;;;;;;;5.37;1.80;;;9.70;99.90;;;;;;5013263;28;20184;-68
2022/02/15 08:56:29;;;;;;;2.40;1.70;;;9.20;99.90;;;;;;5012872;28;20416;-68
2022/02/15 08:58:54;;;;;;;4.87;1.60;;;9.30;99.90;;;;;;5013320;28;20465;-67
2022/02/15 09:01:20;;;;;;;2.13;1.60;;;9.40;99.90;;;;;;5013063;28;20192;-67
2022/02/15 09:03:46;;;;;;;3.30;2.10;;;9.20;99.90;;;;;;5012982;28;20188;-68
2022/02/15 09:06:11;;;;;;;3.07;2.23;;;9.20;99.90;;;;;;5013395;28;20511;-68
2022/02/15 09:08:37;;;;;;;3.10;1.67;;;9.30;99.90;;;;;;5013091;28;20262;-68
2022/02/15 09:11:02;;;;;;;2.10;1.70;;;9.10;99.90;;;;;;5013084;28;20190;-67
2022/02/15 09:13:28;;;;;;;4.10;1.67;;;9.40;99.90;;;;;;5012845;28;20173;-67
2022/02/15 09:15:53;;;;;;;2.77;2.27;;;9.80;99.90;;;;;;5012851;28;20176;-67
2022/02/15 09:18:19;;;;;;;2.10;1.73;;;9.80;99.90;;;;;;5013054;28;20182;-67
2022/02/15 09:20:45;;;;;;;2.40;1.90;;;10.30;99.90;;;;;;5012594;28;20204;-67
2022/02/15 09:23:10;;;;;;;1.73;1.60;;;10.40;99.90;;;;;;5012651;28;20426;-67
2022/02/15 09:25:36;;;;;;;1.80;1.70;;;11.00;99.90;;;;;;5012412;28;20180;-68
2022/02/15 09:28:03;;;;;;;2.07;1.80;;;10.70;99.90;;;;;;5013063;28;20263;-68
2022/02/15 09:30:28;;;;;;;2.70;1.60;;;10.50;99.90;;;;;;5013068;28;20494;-68
2022/02/15 09:32:54;;;;;;;4.70;1.57;;;10.20;99.90;;;;;;5032679;28;20414;-68
2022/02/15 09:35:20;;;;;;;3.37;1.67;;;10.10;99.90;;;;;;5032579;28;20172;-68
2022/02/15 09:37:46;;;;;;;2.10;1.93;;;10.40;99.90;;;;;;5031152;28;20697;-68
2022/02/15 09:40:12;;;;;;;2.50;1.67;;;10.50;99.90;;;;;;4994886;28;20427;-68
2022/02/15 09:42:39;;;;;;;4.90;2.10;;;10.30;99.90;;;;;;5012536;28;20295;-68
2022/02/15 09:45:07;;;;;;;2.30;2.10;;;10.70;99.90;;;;;;5012808;28;20454;-69
2022/02/15 09:47:34;;;;;;;5.53;1.97;;;11.10;99.90;;;;;;5012601;28;20415;-67
2022/02/15 09:50:03;;;;;;;2.40;1.93;;;11.20;99.90;;;;;;4994742;28;20446;-68
2022/02/15 09:52:29;;;;;;;2.40;2.20;;;10.60;99.90;;;;;;5012523;28;20515;-68
2022/02/15 09:54:55;;;;;;;1.67;1.57;;;10.50;99.90;;;;;;5012314;28;20837;-68
2022/02/15 09:57:22;;;;;;;3.10;1.63;;;10.20;99.90;;;;;;5012475;28;20203;-68
2022/02/15 09:59:50;;;;;;;6.00;2.13;;;10.10;99.90;;;;;;5012743;28;20419;-68
2022/02/15 10:02:21;;;;;;;1.87;1.70;;;9.90;99.90;;;;;;5012416;28;20769;-67
2022/02/15 10:04:54;;;;;;;4.50;2.10;;;10.30;99.90;;;;;;5012228;28;21055;-67
2022/02/15 10:07:20;;;;;;;3.13;2.00;;;10.00;99.90;;;;;;5012268;28;20465;-67
2022/02/15 10:09:50;;;;;;;2.70;2.23;;;9.60;99.90;;;;;;5012491;28;20816;-67
2022/02/15 10:12:16;;;;;;;5.60;2.20;;;10.00;99.90;;;;;;5011973;28;20192;-67
2022/02/15 10:14:44;;;;;;;2.83;2.63;;;9.50;99.90;;;;;;5011955;28;20842;-67
2022/02/15 10:17:13;;;;;;;2.67;1.83;;;9.50;99.90;;;;;;5011788;28;20497;-67
2022/02/15 10:19:41;;;;;;;2.23;1.90;;;9.50;99.90;;;;;;5012016;28;20469;-66
2022/02/15 10:22:06;;;;;;;4.83;2.60;;;9.80;99.90;;;;;;5011498;28;20459;-67
2022/02/15 10:24:35;;;;;;;5.13;2.20;;;9.90;99.90;;;;;;5011304;28;20804;-67
2022/02/15 10:27:04;;;;;;;3.33;1.90;;;10.00;99.90;;;;;;5011716;28;20430;-67
2022/02/15 10:29:33;;;;;;;3.40;2.37;;;10.00;99.90;;;;;;5012064;28;20756;-68
2022/02/15 10:32:03;;;;;;;3.93;2.23;;;10.00;99.90;;;;;;5011534;28;20435;-68
2022/02/15 10:34:29;;;;;;;2.40;1.87;;;10.50;99.90;;;;;;5011475;28;20423;-69
2022/02/15 10:37:07;;;;;;;2.53;1.77;;;10.50;99.90;;;;;;5011799;28;20925;-67
2022/02/15 10:39:40;;;;;;;2.53;2.10;;;10.30;99.90;;;;;;5011862;28;20913;-68
2022/02/15 10:42:10;;;;;;;3.63;2.10;;;10.00;99.90;;;;;;4999763;28;20457;-68
2022/02/15 10:44:57;;;;;;;3.73;1.80;;;9.80;99.90;;;;;;5011866;28;20459;-68
2022/02/15 10:47:24;;;;;;;2.60;2.37;;;10.10;99.90;;;;;;5011780;28;20486;-68
2022/02/15 10:49:50;;;;;;;3.50;2.27;;;9.90;99.90;;;;;;5011757;28;20420;-67
2022/02/15 10:52:16;;;;;;;2.80;2.50;;;9.90;99.90;;;;;;5011231;28;20430;-67
2022/02/15 10:54:42;;;;;;;59.40;24.13;;;10.00;99.90;;;;;;5012034;28;20189;-67
2022/02/15 10:57:13;;;;;;;108.93;47.17;;;10.10;99.90;;;;;;5012155;28;20502;-68
2022/02/15 10:59:41;;;;;;;23.17;16.30;;;12.20;99.90;;;;;;5012406;28;20822;-68
2022/02/15 11:02:26;;;;;;;28.30;16.00;;;11.90;99.90;;;;;;5012128;28;20454;-70
2022/02/15 11:04:54;;;;;;;5.53;4.73;;;12.20;99.90;;;;;;5012003;28;20988;-69
2022/02/15 11:07:23;;;;;;;3.13;1.97;;;10.80;99.90;;;;;;5013351;28;20419;-70
2022/02/15 11:10:22;;;;;;;2.47;1.93;;;10.00;99.90;;;;;;5012378;28;20906;-68
2022/02/15 11:13:00;;;;;;;2.43;2.20;;;10.00;99.90;;;;;;4992746;28;20821;-69
2022/02/15 11:15:31;;;;;;;3.57;2.63;;;9.90;99.90;;;;;;4992538;28;20402;-68
2022/02/15 11:17:59;;;;;;;6.67;3.27;;;9.90;99.90;;;;;;4996296;28;20429;-68
2022/02/15 11:20:29;;;;;;;3.17;2.20;;;10.00;99.90;;;;;;5011819;28;20826;-68
2022/02/15 11:22:57;;;;;;;1.57;1.47;;;10.00;99.90;;;;;;5011032;28;20437;-68
2022/02/15 11:25:37;;;;;;;2.83;2.30;;;10.10;99.90;;;;;;5010524;28;20557;-69
2022/02/15 11:28:11;;;;;;;2.17;1.97;;;10.20;99.90;;;;;;4991599;28;20418;-68
2022/02/15 11:30:45;;;;;;;1.77;1.67;;;10.30;99.90;;;;;;4991860;28;20778;-69
2022/02/15 11:33:10;;;;;;;3.13;2.50;;;10.00;99.90;;;;;;5017247;28;20426;-69
2022/02/15 11:35:36;;;;;;;1.87;1.77;;;9.90;99.90;;;;;;5012146;28;20905;-68
2022/02/15 11:38:27;;;;;;;2.30;2.10;;;10.20;99.90;;;;;;5015318;28;20177;-68
2022/02/15 11:41:07;;;;;;;3.10;2.20;;;9.90;99.90;;;;;;5011558;28;20208;-68
2022/02/15 11:43:34;;;;;;;3.87;2.50;;;9.80;99.90;;;;;;5015026;28;20806;-68
2022/02/15 11:46:01;;;;;;;2.80;2.10;;;10.10;99.90;;;;;;5015619;28;20410;-68
2022/02/15 11:48:41;;;;;;;2.67;2.40;;;10.10;99.90;;;;;;5016079;28;20403;-68
2022/02/15 11:51:17;;;;;;;3.43;1.87;;;10.00;99.90;;;;;;5015216;28;20438;-68
2022/02/15 11:53:44;;;;;;;3.93;2.27;;;10.30;99.90;;;;;;5015500;28;20962;-68
2022/02/15 11:56:14;;;;;;;3.23;1.70;;;10.40;99.90;;;;;;5014958;28;20407;-68
2022/02/15 11:58:44;;;;;;;2.03;1.83;;;10.30;99.90;;;;;;5014829;28;20414;-68
2022/02/15 12:01:20;;;;;;;3.23;2.20;;;10.30;99.90;;;;;;5014855;28;20450;-68
2022/02/15 12:03:45;;;;;;;3.40;1.47;;;10.20;99.90;;;;;;5014388;28;20476;-67
2022/02/15 12:06:10;;;;;;;2.27;1.77;;;10.10;99.90;;;;;;5014701;28;20411;-68
2022/02/15 12:08:36;;;;;;;2.67;1.70;;;10.00;99.90;;;;;;5014563;28;20188;-68
2022/02/15 12:11:04;;;;;;;3.63;2.77;;;10.00;99.90;;;;;;5014537;28;20653;-68
2022/02/15 12:13:34;;;;;;;3.43;2.17;;;10.20;99.90;;;;;;5014235;28;20172;-67
2022/02/15 12:15:59;;;;;;;2.30;1.83;;;10.20;99.90;;;;;;5014079;28;20403;-68
2022/02/15 12:18:32;;;;;;;2.33;2.13;;;10.20;99.90;;;;;;5014086;28;20465;-67
2022/02/15 12:20:58;;;;;;;1.97;1.80;;;10.00;99.90;;;;;;5030974;22;20953;-73
2022/02/15 12:23:27;;;;;;;2.60;2.07;;;10.00;99.90;;;;;;4975092;28;20538;-73
2022/02/15 12:25:53;;;;;;;3.90;2.57;;;9.80;99.90;;;;;;4959870;28;21063;-72
2022/02/15 12:28:25;;;;;;;1.70;1.60;;;10.00;99.90;;;;;;4960588;28;20825;-73
2022/02/15 12:30:56;;;;;;;1.80;1.70;;;10.20;99.90;;;;;;4956137;29;20167;-73
2022/02/15 12:33:21;;;;;;;2.30;2.10;;;10.30;99.90;;;;;;4965153;28;20426;-73
2022/02/15 12:35:54;;;;;;;3.90;1.93;;;10.10;99.90;;;;;;4956139;29;20417;-72
2022/02/15 12:38:20;;;;;;;2.00;1.67;;;10.30;99.90;;;;;;4944563;28;20201;-71
2022/02/15 12:40:45;;;;;;;3.03;1.97;;;10.30;99.90;;;;;;4975076;28;20433;-72
2022/02/15 12:43:11;;;;;;;3.60;2.77;;;10.30;99.90;;;;;;4975097;28;20178;-72
2022/02/15 12:45:45;;;;;;;1.30;1.20;;;10.40;99.90;;;;;;4970489;28;20321;-72
2022/02/15 12:48:11;;;;;;;3.20;2.37;;;10.40;99.90;;;;;;4956061;28;20179;-72
2022/02/15 12:50:37;;;;;;;2.00;1.63;;;10.30;99.90;;;;;;4967917;28;20413;-72
2022/02/15 12:53:03;;;;;;;2.03;1.90;;;10.30;99.90;;;;;;4975816;28;20495;-73
2022/02/15 12:55:30;;;;;;;2.30;2.10;;;10.30;99.90;;;;;;4957656;28;20438;-72
2022/02/15 12:57:55;;;;;;;2.27;1.63;;;10.60;99.90;;;;;;4969065;28;20873;-72